Time;durP1;ratioP1;P1;durP2;ratioP2;P2;SDS_P1;SDS_P2;PMS_P1;PMS_P2;Temp;Humidity;BMP_temperature;BMP_pressure;BME280_temperature;BME280_humidity;BME280_pressure;Samples;Min_cycle;Max_cycle;Signal;HPM_P1;HPM_P2
2023/06/27 00:00:36;;;;;;;9.00;3.30;;;;;;;16.03;100.00;101716.63;5034764;28;20191;-72
2023/06/27 00:03:01;;;;;;;12.47;3.30;;;;;;;16.03;100.00;101719.19;5028530;28;20194;-72
2023/06/27 00:05:26;;;;;;;11.83;3.83;;;;;;;16.05;100.00;101714.91;5026860;28;20672;-74
2023/06/27 00:07:52;;;;;;;9.63;2.97;;;;;;;15.96;100.00;101713.09;5028535;28;20190;-73
2023/06/27 00:10:17;;;;;;;11.17;3.30;;;;;;;15.93;100.00;101715.63;5029131;28;20191;-72
2023/06/27 00:12:44;;;;;;;12.30;3.40;;;;;;;15.92;100.00;101719.06;5030070;28;20585;-73
2023/06/27 00:15:10;;;;;;;10.93;3.63;;;;;;;15.89;100.00;101713.00;5027121;28;20205;-72
2023/06/27 00:17:37;;;;;;;10.37;3.60;;;;;;;15.90;100.00;101720.78;5033553;28;20215;-71
2023/06/27 00:20:02;;;;;;;9.20;3.17;;;;;;;15.91;100.00;101724.22;5028584;28;20259;-72
2023/06/27 00:22:28;;;;;;;10.43;3.47;;;;;;;15.85;100.00;101719.88;5027676;28;20881;-71
2023/06/27 00:24:54;;;;;;;7.87;3.20;;;;;;;15.88;100.00;101729.38;5026205;28;20186;-72
2023/06/27 00:27:20;;;;;;;12.57;3.53;;;;;;;15.84;100.00;101722.44;5025411;28;20606;-71
2023/06/27 00:29:46;;;;;;;10.97;3.40;;;;;;;15.79;100.00;101731.84;5032130;28;20288;-72
2023/06/27 00:32:11;;;;;;;12.57;3.40;;;;;;;15.80;100.00;101726.66;5034666;28;20257;-73
2023/06/27 00:34:37;;;;;;;10.60;3.33;;;;;;;15.83;100.00;101728.41;5028637;28;20203;-73
2023/06/27 00:37:02;;;;;;;10.07;3.90;;;;;;;15.80;100.00;101729.25;5031267;28;20260;-73
2023/06/27 00:39:28;;;;;;;7.07;2.97;;;;;;;15.79;100.00;101724.94;5029238;28;20202;-72
2023/06/27 00:41:54;;;;;;;9.07;3.20;;;;;;;15.76;100.00;101730.09;5025285;28;20195;-72
2023/06/27 00:44:20;;;;;;;7.43;3.30;;;;;;;15.73;100.00;101727.44;5028439;28;20213;-73
2023/06/27 00:46:49;;;;;;;16.13;3.93;;;;;;;15.70;100.00;101734.28;5026355;28;20297;-73
2023/06/27 00:49:16;;;;;;;10.70;3.70;;;;;;;15.65;100.00;101760.03;5032851;28;20420;-72
2023/06/27 00:51:42;;;;;;;9.70;3.40;;;;;;;15.68;100.00;101757.50;5025184;28;20245;-74
2023/06/27 00:54:09;;;;;;;9.10;3.30;;;;;;;15.67;100.00;101750.63;5032864;28;20554;-72
2023/06/27 00:56:36;;;;;;;10.43;4.07;;;;;;;15.67;100.00;101752.31;5026992;28;20225;-71
2023/06/27 00:59:03;;;;;;;9.80;3.67;;;;;;;15.62;100.00;101756.56;5028789;28;20791;-71
2023/06/27 01:01:31;;;;;;;8.97;3.30;;;;;;;15.60;100.00;101753.94;5026647;28;20265;-72
2023/06/27 01:03:58;;;;;;;7.97;3.37;;;;;;;15.58;100.00;101750.50;5025512;28;20209;-72
2023/06/27 01:06:45;;;;;;;9.43;4.13;;;;;;;15.56;100.00;101748.75;5023807;28;20565;-72
2023/06/27 01:09:46;;;;;;;8.93;3.00;;;;;;;15.57;100.00;101742.72;5025034;28;20217;-72
2023/06/27 01:12:33;;;;;;;15.87;3.50;;;;;;;15.58;100.00;101744.44;5025133;28;20985;-71
2023/06/27 01:15:00;;;;;;;9.23;3.00;;;;;;;15.58;100.00;101747.91;5033618;28;20247;-71
2023/06/27 01:17:28;;;;;;;8.27;3.43;;;;;;;15.57;100.00;101742.72;5026886;28;20214;-72
2023/06/27 01:19:54;;;;;;;14.00;3.27;;;;;;;15.58;100.00;101741.88;5027854;28;20256;-72
2023/06/27 01:22:32;;;;;;;11.63;3.60;;;;;;;15.51;100.00;101738.34;5028311;28;20199;-72
2023/06/27 01:24:59;;;;;;;10.53;3.00;;;;;;;15.49;100.00;101752.94;5026249;28;20263;-72
2023/06/27 01:27:28;;;;;;;17.87;3.67;;;;;;;15.48;100.00;101742.59;5025720;28;20218;-72
2023/06/27 01:29:54;;;;;;;10.27;3.07;;;;;;;15.50;100.00;101741.78;5027523;28;20687;-72
2023/06/27 01:32:26;;;;;;;15.10;3.43;;;;;;;15.49;100.00;101745.22;5033945;28;20191;-72
2023/06/27 01:35:31;;;;;;;11.53;3.80;;;;;;;15.50;100.00;101739.19;5029587;28;20198;-72
2023/06/27 01:38:04;;;;;;;7.63;2.70;;;;;;;15.43;100.00;101741.66;5025991;28;20242;-72
2023/06/27 01:40:36;;;;;;;8.57;3.33;;;;;;;15.40;100.00;101745.06;5034193;28;20218;-72
2023/06/27 01:43:07;;;;;;;12.27;3.10;;;;;;;15.38;100.00;101733.00;5024212;28;20202;-74
2023/06/27 01:45:34;;;;;;;13.67;3.37;;;;;;;15.39;100.00;101748.50;5027117;28;20195;-72
2023/06/27 01:48:00;;;;;;;8.87;2.63;;;;;;;15.37;100.00;101742.44;5028813;28;20193;-73
2023/06/27 01:50:26;;;;;;;6.90;2.60;;;;;;;15.36;100.00;101730.38;5025971;28;20182;-72
2023/06/27 01:52:51;;;;;;;13.10;3.57;;;;;;;15.40;100.00;101736.44;5027451;28;20190;-72
2023/06/27 01:55:18;;;;;;;8.97;3.03;;;;;;;15.36;100.00;101739.81;5028083;28;20209;-72
2023/06/27 01:57:44;;;;;;;12.40;2.87;;;;;;;15.36;100.00;101732.09;5026263;28;20218;-73
2023/06/27 02:00:10;;;;;;;10.10;2.97;;;;;;;15.32;100.00;101735.44;5017037;28;20282;-72
2023/06/27 02:02:42;;;;;;;8.13;3.13;;;;;;;15.32;100.00;101736.31;5028802;28;20844;-72
2023/06/27 02:05:08;;;;;;;10.43;2.70;;;;;;;15.30;100.00;101726.81;5028286;28;20300;-71
2023/06/27 02:07:35;;;;;;;9.07;3.13;;;;;;;15.31;100.00;101741.44;5025219;28;20306;-72
2023/06/27 02:10:00;;;;;;;12.83;3.20;;;;;;;15.31;100.00;101741.44;5028909;28;20278;-72
2023/06/27 02:12:26;;;;;;;8.53;2.60;;;;;;;15.30;100.00;101738.03;5024140;28;20853;-72
2023/06/27 02:14:52;;;;;;;6.73;2.90;;;;;;;15.30;100.00;101730.28;5024973;28;20198;-72
2023/06/27 02:17:17;;;;;;;12.27;3.63;;;;;;;15.26;100.00;101750.84;5012408;28;20228;-72
2023/06/27 02:19:42;;;;;;;9.40;2.67;;;;;;;15.20;100.00;101740.44;5027149;28;20194;-72
2023/06/27 02:22:08;;;;;;;11.63;3.50;;;;;;;15.05;100.00;101735.03;5026767;28;20205;-72
2023/06/27 02:24:33;;;;;;;11.87;3.60;;;;;;;15.04;100.00;101739.31;5026340;28;20683;-72
2023/06/27 02:27:00;;;;;;;8.60;2.90;;;;;;;15.03;100.00;101728.97;5022931;28;20214;-71
2023/06/27 02:29:26;;;;;;;11.50;3.50;;;;;;;14.95;100.00;101728.88;5023758;28;20194;-71
2023/06/27 02:31:52;;;;;;;9.30;3.00;;;;;;;14.90;100.00;101733.09;5026793;28;20198;-72
2023/06/27 02:34:17;;;;;;;9.30;3.03;;;;;;;14.88;100.00;101732.16;5023624;28;20263;-72
2023/06/27 02:36:43;;;;;;;12.87;3.20;;;;;;;14.79;100.00;101726.91;5027484;28;20209;-72
2023/06/27 02:39:08;;;;;;;9.07;3.23;;;;;;;14.81;100.00;101719.16;5024658;28;20200;-73
2023/06/27 02:41:33;;;;;;;10.23;3.03;;;;;;;14.79;100.00;101721.75;5012780;28;20203;-72
2023/06/27 02:44:01;;;;;;;11.43;3.50;;;;;;;14.80;100.00;101717.44;5022148;28;20195;-73
2023/06/27 02:46:27;;;;;;;13.27;3.70;;;;;;;14.79;100.00;101716.56;5024313;28;20315;-73
2023/06/27 02:48:52;;;;;;;9.50;3.23;;;;;;;14.80;100.00;101722.59;5021314;28;20202;-72
2023/06/27 02:51:19;;;;;;;8.67;3.10;;;;;;;14.85;100.00;101720.94;5024237;28;20194;-72
2023/06/27 02:53:45;;;;;;;13.03;3.37;;;;;;;14.87;100.00;101707.22;5026642;28;20198;-73
2023/06/27 02:56:10;;;;;;;12.90;3.47;;;;;;;14.85;100.00;101708.06;5026456;28;20258;-71
2023/06/27 02:58:37;;;;;;;9.40;3.77;;;;;;;14.85;100.00;101715.78;5026544;28;20289;-72
2023/06/27 03:01:03;;;;;;;9.40;3.20;;;;;;;14.87;100.00;101709.81;5025292;28;20186;-72
2023/06/27 03:03:33;;;;;;;8.00;3.10;;;;;;;14.85;100.00;101720.94;5015030;28;20205;-72
2023/06/27 03:06:02;;;;;;;8.57;3.33;;;;;;;14.83;100.00;101720.91;5027525;28;20699;-72
2023/06/27 03:08:30;;;;;;;10.63;3.40;;;;;;;14.82;100.00;101729.50;5023451;28;20194;-73
2023/06/27 03:10:56;;;;;;;11.13;3.23;;;;;;;14.84;100.00;101717.53;5021345;28;20183;-71
2023/06/27 03:13:22;;;;;;;10.17;3.20;;;;;;;14.84;100.00;101730.41;5025673;28;20195;-72
2023/06/27 03:15:47;;;;;;;9.03;3.60;;;;;;;14.85;100.00;101723.53;5025609;28;20213;-72
2023/06/27 03:18:13;;;;;;;8.23;3.03;;;;;;;14.90;100.00;101724.47;5031987;28;20215;-72
2023/06/27 03:20:38;;;;;;;5.53;3.10;;;;;;;14.94;100.00;101719.41;5025739;28;20572;-72
2023/06/27 03:23:04;;;;;;;9.87;3.13;;;;;;;14.96;100.00;101722.84;5024605;28;20255;-72
2023/06/27 03:25:29;;;;;;;9.70;2.80;;;;;;;14.97;100.00;101731.47;5022271;28;20202;-72
2023/06/27 03:27:55;;;;;;;6.53;2.87;;;;;;;14.96;100.00;101722.00;5020366;28;20183;-72
2023/06/27 03:30:22;;;;;;;8.57;2.83;;;;;;;14.94;100.00;101732.28;5016642;28;20631;-72
2023/06/27 03:32:47;;;;;;;8.90;3.13;;;;;;;14.97;100.00;101728.88;5026487;28;20186;-72
2023/06/27 03:35:13;;;;;;;9.17;2.93;;;;;;;14.97;100.00;101739.22;5024487;28;20186;-72
2023/06/27 03:37:39;;;;;;;5.47;2.80;;;;;;;15.04;100.00;101733.28;5023521;28;20218;-72
2023/06/27 03:40:05;;;;;;;5.97;3.43;;;;;;;15.03;100.00;101726.41;5028853;28;20764;-73
2023/06/27 03:42:31;;;;;;;10.47;2.97;;;;;;;15.04;100.00;101731.59;5023052;28;20241;-71
2023/06/27 03:44:56;;;;;;;8.37;2.93;;;;;;;15.05;100.00;101727.31;5025410;28;20222;-72
2023/06/27 03:47:24;;;;;;;8.23;2.90;;;;;;;15.05;100.00;101728.16;5035857;28;20211;-72
2023/06/27 03:49:49;;;;;;;8.63;3.10;;;;;;;15.02;100.00;101735.88;5029816;28;20205;-71
2023/06/27 03:52:15;;;;;;;11.13;3.67;;;;;;;15.03;100.00;101736.72;5027332;28;20210;-72
2023/06/27 03:54:40;;;;;;;6.43;3.03;;;;;;;15.03;100.00;101739.28;5032459;28;20197;-72
2023/06/27 03:57:07;;;;;;;9.70;3.77;;;;;;;15.07;100.00;101733.34;5029103;28;20250;-71
2023/06/27 03:59:32;;;;;;;7.60;2.43;;;;;;;15.05;100.00;101733.31;5025907;28;20269;-72
2023/06/27 04:01:58;;;;;;;6.40;3.23;;;;;;;15.06;100.00;101735.03;5026937;28;20571;-72
2023/06/27 04:04:24;;;;;;;6.63;2.67;;;;;;;15.10;100.00;101735.97;5033774;28;20208;-71
2023/06/27 04:06:50;;;;;;;7.43;2.23;;;;;;;15.12;100.00;101742.03;5029033;28;20208;-72
2023/06/27 04:09:15;;;;;;;7.77;2.83;;;;;;;15.17;100.00;101730.94;5024305;28;20574;-72
2023/06/27 04:11:40;;;;;;;7.20;2.40;;;;;;;15.24;100.00;101737.06;5026537;28;20224;-72
2023/06/27 04:14:06;;;;;;;9.37;3.00;;;;;;;15.25;100.00;101737.09;5028271;28;20261;-71
2023/06/27 04:16:31;;;;;;;7.80;2.70;;;;;;;15.38;100.00;101739.00;5028138;28;20210;-71
2023/06/27 04:18:57;;;;;;;5.70;2.63;;;;;;;15.46;100.00;101732.25;5029419;28;20281;-72
2023/06/27 04:21:22;;;;;;;4.47;2.73;;;;;;;15.59;100.00;101722.94;5025158;28;20193;-71
2023/06/27 04:23:50;;;;;;;8.53;2.57;;;;;;;15.67;100.00;101718.75;5029196;28;20244;-72
2023/06/27 04:26:17;;;;;;;8.73;2.50;;;;;;;15.65;100.00;101721.31;5029293;28;20224;-72
2023/06/27 04:28:48;;;;;;;5.30;1.83;;;;;;;15.67;100.00;101729.09;5028494;28;20199;-72
2023/06/27 04:31:14;;;;;;;7.20;2.60;;;;;;;15.62;100.00;101730.75;5034316;28;20201;-71
2023/06/27 04:33:40;;;;;;;7.30;2.60;;;;;;;15.61;100.00;101737.59;5030786;28;20195;-73
2023/06/27 04:36:06;;;;;;;5.73;2.10;;;;;;;15.69;100.00;101733.41;5028520;28;20218;-73
2023/06/27 04:38:39;;;;;;;6.80;2.27;;;;;;;15.79;100.00;101737.00;5024921;28;20229;-73
2023/06/27 04:41:06;;;;;;;6.50;2.20;;;;;;;15.88;100.00;101739.69;5022256;28;20203;-71
2023/06/27 04:43:34;;;;;;;4.83;1.80;;;;;;;15.89;100.00;101734.53;5025477;28;20664;-71
2023/06/27 04:46:00;;;;;;;5.60;1.93;;;;;;;15.80;100.00;101731.81;5026664;28;20229;-72
2023/06/27 04:48:29;;;;;;;6.43;2.30;;;;;;;15.86;100.00;101731.94;5024865;28;20198;-72
2023/06/27 04:50:56;;;;;;;5.60;2.03;;;;;;;15.97;100.00;101735.50;5028494;28;20242;-72
2023/06/27 04:53:22;;;;;;;6.47;2.40;;;;;;;16.06;100.00;101732.13;5026691;28;20214;-72
2023/06/27 04:55:48;;;;;;;6.07;2.00;;;;;;;16.17;100.00;101733.13;5027526;28;20206;-72
2023/06/27 04:58:14;;;;;;;7.00;1.97;;;;;;;16.18;100.00;101729.69;5020480;28;20574;-71
2023/06/27 05:00:39;;;;;;;3.83;1.63;;;;;;;16.25;100.00;101728.94;5026364;28;20195;-72
2023/06/27 05:03:05;;;;;;;6.80;2.40;;;;;;;16.29;100.00;101728.09;5030161;28;20658;-73
2023/06/27 05:05:34;;;;;;;3.77;1.60;;;;;;;16.38;100.00;101723.00;5024412;28;20747;-72
2023/06/27 05:08:05;;;;;;;4.80;1.37;;;;;;;16.48;100.00;101722.31;5023915;28;20191;-73
2023/06/27 05:10:31;;;;;;;5.10;1.80;;;;;;;16.55;100.00;101724.97;5023863;28;20203;-72
2023/06/27 05:12:57;;;;;;;3.63;1.90;;;;;;;16.62;100.00;101716.38;5023208;28;20210;-73
2023/06/27 05:15:23;;;;;;;6.57;1.70;;;;;;;16.69;100.00;101717.31;5022194;28;20286;-72
2023/06/27 05:17:53;;;;;;;2.77;1.60;;;;;;;16.80;100.00;101711.38;5026493;28;20360;-72
2023/06/27 05:20:20;;;;;;;4.33;1.70;;;;;;;16.98;100.00;101710.63;5024318;28;20191;-72
2023/06/27 05:22:45;;;;;;;4.17;1.80;;;;;;;17.08;100.00;101707.28;5026563;28;20202;-72
2023/06/27 05:25:11;;;;;;;5.57;1.87;;;;;;;17.20;100.00;101712.53;5026362;28;20208;-72
2023/06/27 05:27:37;;;;;;;6.10;1.97;;;;;;;17.16;100.00;101711.66;5024213;28;20218;-72
2023/06/27 05:30:03;;;;;;;5.03;2.00;;;;;;;16.98;100.00;101705.47;5023629;28;20656;-72
2023/06/27 05:32:28;;;;;;;7.90;2.50;;;;;;;16.90;100.00;101714.91;5026408;28;20205;-72
2023/06/27 05:34:54;;;;;;;3.80;1.97;;;;;;;16.88;100.00;101708.84;5015463;28;20187;-72
2023/06/27 05:37:19;;;;;;;4.23;2.07;;;;;;;16.76;100.00;101706.19;5032464;28;20866;-72
2023/06/27 05:39:45;;;;;;;5.23;2.30;;;;;;;16.71;100.00;101718.22;5028649;28;20205;-72
2023/06/27 05:42:10;;;;;;;10.80;2.53;;;;;;;16.72;100.00;101722.53;5028227;28;20205;-72
2023/06/27 05:44:36;;;;;;;5.90;2.67;;;;;;;16.63;100.00;101731.03;5028151;28;20194;-72
2023/06/27 05:47:01;;;;;;;7.70;2.73;;;;;;;16.64;100.00;101721.56;5020954;28;20310;-73
2023/06/27 05:49:27;;;;;;;6.33;2.60;;;;;;;16.63;100.00;101719.84;5026392;28;20194;-72
2023/06/27 05:51:52;;;;;;;5.63;2.93;;;;;;;16.61;100.00;101721.53;5026157;28;20209;-73
2023/06/27 05:54:17;;;;;;;6.03;2.83;;;;;;;16.58;100.00;101721.53;5022303;28;20209;-72
2023/06/27 05:56:43;;;;;;;5.23;2.53;;;;;;;16.60;100.00;101723.28;5021775;28;20221;-72
2023/06/27 05:59:08;;;;;;;5.47;2.70;;;;;;;16.63;100.00;101730.19;5022326;28;20286;-73
2023/06/27 06:01:35;;;;;;;6.60;2.43;;;;;;;16.65;100.00;101725.88;5023137;28;20292;-72
2023/06/27 06:04:01;;;;;;;6.73;3.10;;;;;;;16.69;100.00;101718.19;5027307;28;20190;-72
2023/06/27 06:06:27;;;;;;;10.43;3.07;;;;;;;16.64;100.00;101711.22;5021317;28;20234;-72
2023/06/27 06:08:52;;;;;;;4.00;2.70;;;;;;;16.65;100.00;101712.97;5026487;28;20191;-73
2023/06/27 06:11:18;;;;;;;7.93;3.07;;;;;;;16.68;100.00;101710.41;5016061;28;20205;-72
2023/06/27 06:13:43;;;;;;;6.90;3.13;;;;;;;16.68;100.00;101719.06;5021835;28;20199;-72
2023/06/27 06:16:09;;;;;;;7.13;2.63;;;;;;;16.77;100.00;101720.84;5027802;28;20300;-73
2023/06/27 06:18:34;;;;;;;7.90;2.60;;;;;;;16.76;100.00;101727.72;5017337;28;20222;-71
2023/06/27 06:21:00;;;;;;;5.70;2.07;;;;;;;16.94;100.00;101719.25;5019670;28;20823;-72
2023/06/27 06:23:25;;;;;;;5.30;2.30;;;;;;;17.00;100.00;101717.56;5026668;28;20190;-72
2023/06/27 06:25:51;;;;;;;4.47;2.23;;;;;;;17.13;100.00;101709.03;5019296;28;20218;-72
2023/06/27 06:28:16;;;;;;;5.80;2.47;;;;;;;17.01;100.00;101713.25;5016536;28;20695;-72
2023/06/27 06:30:41;;;;;;;6.03;2.17;;;;;;;17.44;100.00;101708.41;5024256;28;20238;-72
2023/06/27 06:33:07;;;;;;;7.07;2.50;;;;;;;17.54;100.00;101698.97;5016997;28;20205;-72
2023/06/27 06:35:32;;;;;;;8.67;2.30;;;;;;;17.52;100.00;101706.72;5022862;28;20194;-72
2023/06/27 06:37:58;;;;;;;5.80;2.23;;;;;;;17.82;100.00;101708.59;5016995;28;20238;-72
2023/06/27 06:40:24;;;;;;;5.17;2.20;;;;;;;17.95;100.00;101705.16;5024838;28;20282;-71
2023/06/27 06:42:50;;;;;;;6.67;2.30;;;;;;;18.09;100.00;101696.56;5014078;28;20801;-73
2023/06/27 06:45:16;;;;;;;5.63;2.10;;;;;;;18.13;100.00;101697.44;5025207;28;20273;-71
2023/06/27 06:47:42;;;;;;;3.00;1.80;;;;;;;18.19;100.00;101700.91;5027630;28;20233;-72
2023/06/27 06:50:07;;;;;;;5.90;2.23;;;;;;;18.16;100.00;101706.09;5021588;28;20237;-72
2023/06/27 06:52:33;;;;;;;2.63;1.70;;;;;;;18.40;100.00;101698.41;5020233;28;20617;-71
2023/06/27 06:54:58;;;;;;;3.93;1.87;;;;;;;18.60;100.00;101693.22;5015771;28;20210;-72
2023/06/27 06:57:24;;;;;;;4.90;1.87;;;;;;;18.82;100.00;101700.13;5017924;28;20258;-72
2023/06/27 06:59:49;;;;;;;4.63;1.63;;;;;;;18.98;100.00;101694.06;5017994;28;20233;-72
2023/06/27 07:02:15;;;;;;;3.73;1.37;;;;;;;19.05;100.00;101691.47;5027076;28;20210;-72
2023/06/27 07:04:40;;;;;;;6.20;1.70;;;;;;;19.07;100.00;101676.72;5021508;28;20206;-72
2023/06/27 07:07:06;;;;;;;7.13;1.53;;;;;;;18.98;100.00;101674.16;5020348;28;20218;-71
2023/06/27 07:09:31;;;;;;;3.87;1.53;;;;;;;19.20;100.00;101664.59;5017467;28;20285;-72
2023/06/27 07:11:57;;;;;;;4.50;1.40;;;;;;;19.20;100.00;101690.56;5021639;28;20297;-72
2023/06/27 07:14:22;;;;;;;3.00;1.23;;;;;;;19.57;100.00;101685.28;5017762;28;20202;-72
2023/06/27 07:16:48;;;;;;;3.23;1.47;;;;;;;19.42;100.00;101669.75;5027782;28;20589;-72
2023/06/27 07:19:13;;;;;;;4.00;1.67;;;;;;;19.40;100.00;101642.91;5016683;28;20199;-72
2023/06/27 07:21:39;;;;;;;5.63;1.50;;;;;;;19.69;100.00;101660.97;5028169;28;20630;-72
2023/06/27 07:24:05;;;;;;;4.17;1.43;;;;;;;19.72;100.00;101629.78;5025378;28;20213;-72
2023/06/27 07:26:31;;;;;;;6.60;1.30;;;;;;;19.83;100.00;101661.78;5018576;28;20207;-72
2023/06/27 07:28:56;;;;;;;3.73;1.20;;;;;;;20.09;100.00;101678.13;5027103;28;20221;-72
2023/06/27 07:31:22;;;;;;;5.70;1.40;;;;;;;20.39;100.00;101657.97;5027238;28;20879;-73
2023/06/27 07:33:47;;;;;;;4.77;1.50;;;;;;;20.70;100.00;101630.81;5021247;28;20202;-72
2023/06/27 07:36:12;;;;;;;7.00;1.30;;;;;;;20.40;100.00;101618.06;5025253;28;20219;-72
2023/06/27 07:38:38;;;;;;;3.87;1.80;;;;;;;20.88;100.00;101611.53;5022485;28;20259;-72
2023/06/27 07:41:03;;;;;;;3.27;1.30;;;;;;;21.14;100.00;101599.16;5020889;28;20199;-71
2023/06/27 07:43:29;;;;;;;5.03;1.60;;;;;;;21.50;100.00;101575.22;5022641;28;20286;-73
2023/06/27 07:45:54;;;;;;;5.90;1.83;;;;;;;21.17;100.00;101578.25;5020401;28;20218;-72
2023/06/27 07:48:20;;;;;;;6.20;1.70;;;;;;;20.60;100.00;101603.13;5021690;28;20288;-71
2023/06/27 07:50:45;;;;;;;4.33;1.40;;;;;;;20.38;100.00;101603.34;5028580;28;20187;-71
2023/06/27 07:53:10;;;;;;;4.03;1.37;;;;;;;20.15;100.00;101603.53;5020174;28;20206;-72
2023/06/27 07:55:36;;;;;;;3.50;1.47;;;;;;;19.88;100.00;101624.47;5019523;28;20195;-71
2023/06/27 07:58:02;;;;;;;4.20;1.47;;;;;;;19.90;100.00;101653.94;5024302;28;20222;-72
2023/06/27 08:00:28;;;;;;;4.20;2.03;;;;;;;19.95;100.00;101652.16;5023697;28;20469;-71
2023/06/27 08:02:53;;;;;;;4.57;1.70;;;;;;;20.13;100.00;101657.28;5026425;28;20704;-71
2023/06/27 08:05:19;;;;;;;5.67;2.00;;;;;;;20.03;100.00;101642.59;5027031;28;20714;-71
2023/06/27 08:07:44;;;;;;;3.97;1.60;;;;;;;19.82;100.00;101623.66;5028908;28;20242;-72
2023/06/27 08:10:11;;;;;;;5.67;1.77;;;;;;;19.79;100.00;101616.75;5024194;28;20206;-72
2023/06/27 08:12:37;;;;;;;3.23;1.40;;;;;;;19.79;100.00;101606.34;5019843;28;20235;-72
2023/06/27 08:15:03;;;;;;;3.97;1.30;;;;;;;19.91;100.00;101628.81;5030556;28;20616;-72
2023/06/27 08:17:29;;;;;;;4.00;1.40;;;;;;;19.94;100.00;101611.44;5027250;28;20252;-72
2023/06/27 08:19:54;;;;;;;4.00;1.40;;;;;;;19.90;100.00;101647.88;5020822;28;20221;-71
2023/06/27 08:22:20;;;;;;;5.03;1.43;;;;;;;19.74;100.00;101699.09;5013570;28;20202;-72
2023/06/27 08:24:45;;;;;;;4.40;1.67;;;;;;;19.51;100.00;101713.91;5018832;28;20499;-72
2023/06/27 08:27:11;;;;;;;3.50;1.30;;;;;;;19.29;100.00;101701.81;5025137;28;20653;-72
2023/06/27 08:29:36;;;;;;;4.17;1.30;;;;;;;19.18;100.00;101719.16;5026246;28;22370;-72
2023/06/27 08:32:02;;;;;;;3.67;1.33;;;;;;;19.10;100.00;101713.09;5021975;28;20699;-73
2023/06/27 08:34:29;;;;;;;5.20;1.10;;;;;;;18.93;100.00;101682.81;5022185;28;20205;-72
2023/06/27 08:36:55;;;;;;;3.33;1.30;;;;;;;18.81;100.00;101694.09;5022071;28;20312;-72
2023/06/27 08:39:21;;;;;;;5.07;1.20;;;;;;;18.84;100.00;101706.19;5026917;28;20873;-71
2023/06/27 08:41:46;;;;;;;4.70;1.10;;;;;;;18.87;100.00;101704.47;5019923;28;20206;-72
2023/06/27 08:44:13;;;;;;;2.60;1.03;;;;;;;18.87;100.00;101698.38;5026086;28;20201;-73
2023/06/27 08:46:41;;;;;;;2.93;1.40;;;;;;;18.88;100.00;101692.34;5029889;28;20330;-75
2023/06/27 08:49:13;;;;;;;4.83;1.27;;;;;;;18.96;100.00;101694.06;5029980;28;20747;-76
2023/06/27 08:51:40;;;;;;;4.43;1.53;;;;;;;19.13;100.00;101663.75;5042528;28;20191;-75
2023/06/27 08:54:19;;;;;;;5.67;1.40;;;;;;;19.79;100.00;101660.94;5028498;28;20199;-72
2023/06/27 08:56:45;;;;;;;3.70;1.27;;;;;;;20.08;100.00;101643.44;5020043;28;20772;-74
2023/06/27 08:59:14;;;;;;;3.70;1.40;;;;;;;20.21;100.00;101623.41;5017551;28;20195;-73
2023/06/27 09:01:40;;;;;;;6.13;1.30;;;;;;;20.17;100.00;101591.38;5025859;28;20297;-74
2023/06/27 09:04:07;;;;;;;5.83;1.30;;;;;;;20.04;100.00;101604.44;5025815;28;20225;-74
2023/06/27 09:06:32;;;;;;;5.67;1.77;;;;;;;19.80;100.00;101643.63;5027652;28;20213;-75
2023/06/27 09:08:59;;;;;;;3.27;1.40;;;;;;;19.68;100.00;101625.47;5027956;28;20191;-74
2023/06/27 09:11:26;;;;;;;4.67;1.50;;;;;;;19.66;100.00;101632.41;5022723;28;20712;-74
2023/06/27 09:13:51;;;;;;;6.73;1.50;;;;;;;19.66;100.00;101668.81;5028454;28;20205;-73
2023/06/27 09:16:17;;;;;;;2.97;1.40;;;;;;;19.55;100.00;101650.66;5022826;28;20313;-75
2023/06/27 09:18:43;;;;;;;2.23;1.10;;;;;;;19.55;100.00;101616.88;5027318;28;20237;-75
2023/06/27 09:21:09;;;;;;;2.93;1.27;;;;;;;19.66;100.00;101622.88;5036832;28;20266;-73
2023/06/27 09:23:36;;;;;;;2.73;1.20;;;;;;;19.77;100.00;101613.25;5017116;28;20199;-74
2023/06/27 09:26:12;;;;;;;5.57;1.20;;;;;;;20.23;100.00;101588.69;5024754;28;20372;-74
2023/06/27 09:28:45;;;;;;;3.60;1.33;;;;;;;21.20;100.00;101537.41;5029099;28;20240;-75
2023/06/27 09:31:13;;;;;;;5.27;1.30;;;;;;;21.69;100.00;101491.53;5029657;28;20201;-74
2023/06/27 09:33:40;;;;;;;2.93;1.13;;;;;;;22.16;100.00;101469.88;5024428;28;20225;-75
2023/06/27 09:36:06;;;;;;;2.80;1.43;;;;;;;22.20;93.47;101432.41;5028020;28;20209;-74
2023/06/27 09:38:34;;;;;;;3.40;1.17;;;;;;;21.72;96.39;101433.25;5029492;28;20300;-75
2023/06/27 09:41:03;;;;;;;2.13;1.10;;;;;;;21.69;89.55;101433.31;5022767;28;20259;-75
2023/06/27 09:43:35;;;;;;;2.40;1.07;;;;;;;22.17;81.04;101380.25;5012809;28;20683;-75
2023/06/27 09:46:01;;;;;;;4.30;1.10;;;;;;;22.83;74.35;101349.31;5018247;28;20297;-75
2023/06/27 09:48:31;;;;;;;4.43;1.20;;;;;;;22.74;76.49;101368.63;5022624;28;20271;-75
2023/06/27 09:51:08;;;;;;;5.80;1.33;;;;;;;23.15;72.86;101354.66;5024685;28;20206;-75
2023/06/27 09:53:34;;;;;;;3.43;1.20;;;;;;;22.95;74.64;101367.31;5025714;28;20194;-76
2023/06/27 09:56:00;;;;;;;5.90;1.30;;;;;;;23.22;73.01;101364.09;5020521;28;20296;-75
2023/06/27 09:58:30;;;;;;;3.90;1.30;;;;;;;23.42;73.27;101369.69;5029700;28;20219;-75
2023/06/27 10:01:04;;;;;;;2.60;1.10;;;;;;;23.56;69.01;101352.75;5018443;28;20198;-75
2023/06/27 10:03:30;;;;;;;2.87;1.17;;;;;;;23.75;68.11;101354.00;5022854;28;20798;-75
2023/06/27 10:05:56;;;;;;;2.80;1.00;;;;;;;24.11;68.63;101352.16;5020781;28;20206;-75
2023/06/27 10:08:21;;;;;;;3.47;1.10;;;;;;;23.67;66.57;101348.09;5019418;28;20884;-75
2023/06/27 10:10:47;;;;;;;2.55;0.95;;;;;;;24.00;63.94;101328.06;5024139;28;20202;-74
2023/06/27 10:13:12;;;;;;;2.95;1.00;;;;;;;24.48;65.17;101322.28;5024918;28;20655;-75
2023/06/27 10:15:38;;;;;;;4.20;1.20;;;;;;;24.60;62.14;101318.47;5030078;28;20307;-75
2023/06/27 10:18:04;;;;;;;4.13;1.13;;;;;;;24.31;66.14;101358.56;5025117;28;20220;-75
2023/06/27 10:20:29;;;;;;;4.07;1.20;;;;;;;24.31;62.68;101321.06;5031942;28;20198;-74
2023/06/27 10:22:57;;;;;;;3.25;1.25;;;;;;;24.38;63.02;101325.19;5031205;28;20197;-73
2023/06/27 10:25:22;;;;;;;7.80;1.40;;;;;;;23.88;60.68;101303.06;5025803;28;20281;-74
2023/06/27 10:27:48;;;;;;;4.85;1.38;;;;;;;24.06;63.77;101325.25;5026841;28;20760;-75
2023/06/27 10:30:20;;;;;;;3.58;1.00;;;;;;;24.41;60.74;101310.25;5028294;28;20206;-77
2023/06/27 10:32:47;;;;;;;3.17;1.30;;;;;;;24.63;58.75;101302.66;5040891;28;20312;-74
2023/06/27 10:35:25;;;;;;;3.22;1.10;;;;;;;24.49;59.35;101305.66;5032109;28;20202;-73
2023/06/27 10:38:11;;;;;;;2.00;0.93;;;;;;;24.37;60.90;101321.75;5025090;28;20213;-75
2023/06/27 10:41:09;;;;;;;3.67;1.05;;;;;;;24.66;59.81;101307.78;5030843;28;21862;-73
2023/06/27 10:43:51;;;;;;;7.78;1.27;;;;;;;24.35;57.62;101293.88;5030538;28;20202;-76
2023/06/27 10:46:19;;;;;;;3.17;1.00;;;;;;;23.29;65.08;101374.34;5033062;28;20222;-76
2023/06/27 10:48:47;;;;;;;3.13;1.17;;;;;;;22.93;71.15;101411.75;5032769;28;20193;-76
2023/06/27 10:51:18;;;;;;;4.07;1.00;;;;;;;23.30;70.97;101425.75;5023379;28;20202;-76
2023/06/27 10:54:11;;;;;;;3.13;0.80;;;;;;;24.11;64.88;101384.47;5038488;28;20193;-74
2023/06/27 10:56:38;;;;;;;2.78;0.93;;;;;;;24.36;61.55;101340.97;5027224;28;20217;-75
2023/06/27 10:59:08;;;;;;;0.88;0.60;;;;;;;24.33;66.62;101387.31;5027974;28;20253;-76
2023/06/27 11:01:35;;;;;;;3.42;1.20;;;;;;;24.63;64.18;101369.00;5028664;28;20290;-75
2023/06/27 11:04:25;;;;;;;3.65;1.02;;;;;;;24.95;69.83;101413.44;5034617;28;20198;-75
2023/06/27 11:07:00;;;;;;;3.63;1.15;;;;;;;24.82;69.76;101406.00;5033992;28;20319;-76
2023/06/27 11:09:28;;;;;;;4.47;1.20;;;;;;;24.71;71.46;101406.31;5011212;28;20206;-76
2023/06/27 11:12:15;;;;;;;4.32;1.63;;;;;;;24.48;68.51;101398.22;5021534;28;20240;-75
2023/06/27 11:14:43;;;;;;;1.92;0.82;;;;;;;24.79;69.66;101404.34;5050559;28;20207;-75
2023/06/27 11:17:10;;;;;;;2.67;1.15;;;;;;;24.55;64.28;101376.22;5045680;28;20218;-75